Accueil
METAR-TAF:

METAR-TAF

Aéroports :

Coventry, Angleterre

latitude: 52-22N, longitude: 001-29W, altitude: 82 m

Observation

Le bulletin a été fait il y a 41 minutes, à 08:20 UTC
Vent 6 kt de sud-ouest
Température 6°C
Humidité 87%
Pression 1019 hPa
Visibilité 10 km ou plus
Quelques nuages à une hauteur de 3200 ft

METAR: EGBE 270820Z 22006KT 9999 FEW032 06/04 Q1019

Heure: 10:01 (09:01 UTC)

Prévision

Le bulletin a été fait il y a 54 minutes, à 08:07 UTC
Prévision valable du 27 à 09 UTC au 27 à 18 UTC
Vent 3 kt de sud/sud-ouest
Visibilité 10 km ou plus
Nuages épars à une hauteur de 4500 ft
Evoluant progressivement
du 27 à 09 UTC au 27 à 12 UTC
Vent 10 kt de ouest/nord-ouest
Probabilité 30% :
Temporairement
du 27 à 11 UTC au 27 à 15 UTC
Visibilité: 8000 m
averses de pluie

TAF: EGBE 270807Z 2709/2718 21003KT 9999 SCT045 BECMG 2709/2712 29010KT PROB30 TEMPO 2711/2715 8000 SHRA

Observations et prévisions météorologiques de plus de 4000 aéroports (messages METAR et TAF).

Les stations disponibles sont représentées par des disques jaunes et rouges sur la carte.

Passer la souris dessus pour voir le nom de la station.

Cliquer dessus pour voir les observations et prévisions météorologiques.

Pour changer de carte: cliquez sur les boutons verts avec une croix noire pour zoomer, sur le bouton vert avec un tiret pour effectuer un zoom arrière, ou sur les flèches vertes pour les cartes adjacentes.


METAR-TAF: